createdAt,value
2022-09-23T00:00:41.442Z,9.34
2022-09-23T00:03:46.853Z,9.32
2022-09-23T00:06:51.299Z,9.29
2022-09-23T00:09:56.063Z,9.26
2022-09-23T00:13:00.041Z,9.23
2022-09-23T00:16:09.631Z,9.18
2022-09-23T00:19:13.652Z,9.18
2022-09-23T00:22:17.579Z,9.15
2022-09-23T00:25:21.904Z,9.09
2022-09-23T00:28:25.695Z,9.02
2022-09-23T00:31:29.794Z,9.00
2022-09-23T00:34:33.943Z,8.96
2022-09-23T00:37:38.299Z,8.91
2022-09-23T00:40:43.947Z,8.90
2022-09-23T00:43:52.203Z,8.88
2022-09-23T00:46:57.009Z,8.91
2022-09-23T00:50:12.692Z,8.87
2022-09-23T00:53:19.854Z,8.85
2022-09-23T00:56:24.512Z,8.86
2022-09-23T00:59:29.135Z,8.80
2022-09-23T01:02:33.355Z,8.78
2022-09-23T01:05:37.209Z,8.90
2022-09-23T01:08:44.485Z,8.90
2022-09-23T01:12:26.540Z,8.97
2022-09-23T01:15:56.802Z,8.93
2022-09-23T01:19:27.152Z,8.83
2022-09-23T01:22:42.069Z,8.79
2022-09-23T01:26:10.479Z,8.74
2022-09-23T01:29:23.862Z,8.79
2022-09-23T01:32:43.234Z,8.83
2022-09-23T01:36:04.608Z,8.78
2022-09-23T01:39:33.815Z,8.73
2022-09-23T01:42:42.943Z,8.68
2022-09-23T01:45:48.473Z,8.72
2022-09-23T01:49:02.763Z,8.80
2022-09-23T01:52:15.875Z,8.79
2022-09-23T01:55:26.772Z,8.85
2022-09-23T01:58:41.913Z,8.87
2022-09-23T02:01:54.095Z,8.88
2022-09-23T02:05:11.943Z,8.93
2022-09-23T02:08:21.610Z,8.88
2022-09-23T02:11:26.886Z,8.89
2022-09-23T02:14:36.396Z,8.88
2022-09-23T02:17:51.972Z,8.88
2022-09-23T02:21:03.429Z,8.87
2022-09-23T02:24:15.409Z,8.85
2022-09-23T02:27:34.424Z,8.88
2022-09-23T02:30:49.428Z,8.86
2022-09-23T02:34:18.109Z,8.73
2022-09-23T02:37:43.574Z,8.75
2022-09-23T02:41:17.651Z,8.73
2022-09-23T02:44:23.610Z,8.75
2022-09-23T02:47:31.723Z,8.65
2022-09-23T02:50:37.101Z,8.72
2022-09-23T02:53:40.995Z,8.66
2022-09-23T02:56:44.722Z,8.66
2022-09-23T02:59:50.716Z,8.62
2022-09-23T03:03:19.279Z,8.54
2022-09-23T03:06:42.361Z,8.54
2022-09-23T03:10:04.264Z,8.60
2022-09-23T03:13:35.192Z,8.58
2022-09-23T03:16:52.189Z,8.49
2022-09-23T03:20:05.225Z,8.46
2022-09-23T03:23:12.548Z,8.40
2022-09-23T03:26:27.552Z,8.34
2022-09-23T03:29:32.830Z,8.38
2022-09-23T03:32:38.471Z,8.38
2022-09-23T03:36:12.076Z,8.37
2022-09-23T03:39:28.315Z,8.39
2022-09-23T03:42:33.996Z,8.36
2022-09-23T03:45:39.008Z,8.37
2022-09-23T03:48:44.917Z,8.38
2022-09-23T03:51:49.228Z,8.34
2022-09-23T03:54:53.618Z,8.31
2022-09-23T03:57:57.834Z,8.32
2022-09-23T04:01:01.758Z,8.32
2022-09-23T04:04:05.712Z,8.34
2022-09-23T04:07:11.228Z,8.35
2022-09-23T04:10:15.461Z,8.32
2022-09-23T04:13:19.543Z,8.31
2022-09-23T04:16:24.858Z,8.29
2022-09-23T04:19:29.035Z,8.27
2022-09-23T04:22:34.086Z,8.26
2022-09-23T04:25:47.984Z,8.20
2022-09-23T04:28:52.113Z,8.18
2022-09-23T04:31:56.086Z,8.17
2022-09-23T04:35:00.134Z,8.11
2022-09-23T04:38:05.180Z,8.10
2022-09-23T04:41:09.777Z,8.06
2022-09-23T04:44:14.742Z,8.09
2022-09-23T04:47:19.377Z,8.10
2022-09-23T04:50:25.612Z,8.02
2022-09-23T04:53:30.393Z,8.04
2022-09-23T04:56:34.351Z,8.00
2022-09-23T04:59:38.388Z,7.92
2022-09-23T05:02:46.607Z,7.91
2022-09-23T05:05:50.924Z,7.97
2022-09-23T05:08:56.506Z,8.01
2022-09-23T05:12:00.589Z,8.01
2022-09-23T05:15:05.323Z,8.04
2022-09-23T05:18:09.678Z,8.04
2022-09-23T05:21:16.763Z,8.07
2022-09-23T05:24:21.692Z,8.12
2022-09-23T05:27:25.502Z,8.13
2022-09-23T05:30:29.934Z,8.17
2022-09-23T05:33:36.058Z,8.18
2022-09-23T05:36:39.920Z,8.19
2022-09-23T05:39:43.947Z,8.24
2022-09-23T05:42:47.847Z,8.23
2022-09-23T05:45:52.722Z,8.24
2022-09-23T05:49:02.096Z,8.26
2022-09-23T05:52:06.399Z,8.36
2022-09-23T05:55:11.631Z,8.34
2022-09-23T05:58:15.772Z,8.39
2022-09-23T06:01:23.079Z,8.46
2022-09-23T06:04:27.555Z,8.46
2022-09-23T06:07:32.625Z,8.58
2022-09-23T06:10:41.530Z,8.58
2022-09-23T06:13:45.730Z,8.61
2022-09-23T06:16:51.485Z,8.74
2022-09-23T06:19:55.496Z,8.76
2022-09-23T06:23:10.643Z,8.91
2022-09-23T06:26:16.714Z,8.91
2022-09-23T06:29:20.521Z,9.01
2022-09-23T06:32:24.761Z,9.08
2022-09-23T06:35:29.208Z,9.10
2022-09-23T06:38:34.655Z,9.19
2022-09-23T06:41:39.261Z,9.33
2022-09-23T06:44:43.318Z,9.40
2022-09-23T06:47:49.628Z,9.66
2022-09-23T06:50:54.830Z,9.87
2022-09-23T06:54:02.108Z,9.97
2022-09-23T06:57:06.541Z,10.04
2022-09-23T07:00:11.929Z,10.08
2022-09-23T07:03:15.909Z,10.21
2022-09-23T07:06:20.362Z,10.24
2022-09-23T07:09:24.469Z,10.31
2022-09-23T07:12:28.647Z,10.46
2022-09-23T07:15:33.847Z,10.42
2022-09-23T07:18:39.125Z,10.56
2022-09-23T07:21:42.899Z,10.61
2022-09-23T07:24:47.160Z,10.74
2022-09-23T07:27:51.506Z,10.86
2022-09-23T07:31:00.371Z,10.98
2022-09-23T07:34:05.116Z,11.04
2022-09-23T07:37:09.197Z,11.09
2022-09-23T07:40:13.454Z,11.22
2022-09-23T07:43:18.344Z,11.42
2022-09-23T07:46:22.319Z,11.50
2022-09-23T07:49:27.573Z,11.59
2022-09-23T07:52:31.821Z,11.77
2022-09-23T07:55:36.170Z,11.87
2022-09-23T07:58:40.722Z,12.05
2022-09-23T08:01:48.299Z,12.27
2022-09-23T08:04:53.411Z,12.65
2022-09-23T08:07:57.736Z,13.00
2022-09-23T08:11:04.709Z,12.97
2022-09-23T08:14:13.525Z,12.90
2022-09-23T08:17:17.580Z,13.02
2022-09-23T08:20:43.661Z,12.99
2022-09-23T08:23:50.999Z,12.96
2022-09-23T08:26:54.852Z,13.02
2022-09-23T08:29:59.132Z,13.17
2022-09-23T08:33:03.075Z,13.18
2022-09-23T08:36:08.041Z,13.29
2022-09-23T08:39:19.112Z,13.36
2022-09-23T08:42:30.683Z,13.56
2022-09-23T08:45:37.367Z,13.71
2022-09-23T08:48:46.313Z,13.80
2022-09-23T08:51:54.798Z,13.98
2022-09-23T08:54:58.968Z,14.15
2022-09-23T08:58:37.192Z,14.49
2022-09-23T09:01:47.433Z,14.52
2022-09-23T09:05:00.303Z,14.57
2022-09-23T09:08:05.091Z,14.72
2022-09-23T09:11:13.553Z,14.80
2022-09-23T09:14:24.733Z,14.86
2022-09-23T09:17:31.789Z,14.73
2022-09-23T09:20:57.609Z,14.72
2022-09-23T09:24:05.268Z,14.74
2022-09-23T09:27:12.794Z,14.77
2022-09-23T09:30:18.144Z,14.92
2022-09-23T09:33:57.992Z,15.11
2022-09-23T09:37:20.167Z,15.24
2022-09-23T09:40:25.599Z,15.56
2022-09-23T09:43:32.395Z,15.48
2022-09-23T09:46:46.539Z,15.44
2022-09-23T09:50:03.227Z,15.44
2022-09-23T09:53:21.847Z,15.50
2022-09-23T09:56:33.034Z,15.54
2022-09-23T09:59:42.012Z,15.61
2022-09-23T10:02:47.280Z,15.67
2022-09-23T10:05:54.582Z,15.74
2022-09-23T10:09:15.105Z,15.99
2022-09-23T10:12:24.525Z,15.91
2022-09-23T10:15:44.939Z,15.93
2022-09-23T10:18:57.060Z,16.07
2022-09-23T10:22:21.126Z,16.14
2022-09-23T10:25:31.701Z,16.21
2022-09-23T10:28:56.580Z,16.32
2022-09-23T10:32:33.528Z,16.46
2022-09-23T10:36:01.403Z,16.65
2022-09-23T10:39:28.744Z,16.70
2022-09-23T10:43:19.217Z,16.91
2022-09-23T10:46:42.586Z,16.88
2022-09-23T10:50:25.516Z,16.89
2022-09-23T10:53:36.300Z,16.78
2022-09-23T10:57:22.602Z,16.85
2022-09-23T11:00:52.004Z,16.92
2022-09-23T11:04:07.560Z,16.96
2022-09-23T11:07:38.271Z,17.20
2022-09-23T11:11:11.569Z,17.25
2022-09-23T11:14:54.520Z,17.15
2022-09-23T11:18:22.926Z,17.11
2022-09-23T11:22:15.997Z,17.06
2022-09-23T11:25:39.219Z,17.13
2022-09-23T11:29:22.328Z,17.25
2022-09-23T11:36:26.553Z,17.41
2022-09-23T11:39:37.937Z,17.42
2022-09-23T11:43:07.213Z,17.55
2022-09-23T11:46:42.136Z,17.43
2022-09-23T11:50:02.490Z,17.46
2022-09-23T11:53:09.415Z,17.59
2022-09-23T11:56:36.898Z,17.67
2022-09-23T11:59:55.148Z,17.44
2022-09-23T12:03:44.395Z,17.26
2022-09-23T12:06:56.831Z,17.07
2022-09-23T12:10:08.488Z,16.94
2022-09-23T12:13:19.291Z,16.92
2022-09-23T12:16:39.688Z,17.17
2022-09-23T12:19:57.195Z,17.34
2022-09-23T12:23:25.455Z,17.64
2022-09-23T12:26:32.362Z,17.81
2022-09-23T12:29:39.014Z,17.82
2022-09-23T12:32:43.298Z,17.70
2022-09-23T12:35:47.615Z,17.60
2022-09-23T12:38:56.146Z,17.64
2022-09-23T12:42:06.389Z,17.90
2022-09-23T12:45:34.742Z,18.04
2022-09-23T12:48:58.347Z,18.11
2022-09-23T12:52:16.400Z,18.00
2022-09-23T12:55:20.729Z,17.89
2022-09-23T12:58:48.121Z,17.85
2022-09-23T13:01:52.574Z,17.89
2022-09-23T13:05:21.341Z,17.89
2022-09-23T13:08:25.688Z,17.90
2022-09-23T13:11:31.556Z,17.88
2022-09-23T13:14:36.441Z,17.82
2022-09-23T13:17:40.829Z,17.70
2022-09-23T13:20:46.990Z,17.68
2022-09-23T13:24:23.963Z,17.66
2022-09-23T13:27:33.919Z,17.67
2022-09-23T13:30:48.069Z,17.78
2022-09-23T13:33:59.725Z,17.77
2022-09-23T13:37:24.692Z,17.68
2022-09-23T13:40:29.975Z,17.72
2022-09-23T13:43:42.606Z,17.98
2022-09-23T13:46:50.523Z,17.97
2022-09-23T13:49:55.450Z,17.87
2022-09-23T13:53:02.456Z,17.64
2022-09-23T13:56:13.781Z,17.51
2022-09-23T13:59:28.351Z,17.40
2022-09-23T14:02:32.476Z,17.36
2022-09-23T14:05:38.429Z,17.35
2022-09-23T14:08:47.928Z,17.30
2022-09-23T14:11:52.194Z,17.24
2022-09-23T14:14:57.167Z,17.22
2022-09-23T14:18:06.259Z,17.28
2022-09-23T14:21:34.955Z,17.36
2022-09-23T14:24:39.485Z,17.45
2022-09-23T14:27:46.714Z,17.49
2022-09-23T14:30:52.948Z,17.46
2022-09-23T14:33:56.740Z,17.50
2022-09-23T14:37:36.836Z,17.74
2022-09-23T14:41:17.056Z,17.85
2022-09-23T14:44:23.716Z,17.89
2022-09-23T14:47:29.028Z,17.78
2022-09-23T14:50:40.477Z,17.52
2022-09-23T14:53:48.709Z,17.32
2022-09-23T14:56:54.010Z,17.23
2022-09-23T15:00:18.276Z,17.13
2022-09-23T15:03:22.869Z,17.10
2022-09-23T15:06:27.621Z,17.12
2022-09-23T15:09:36.219Z,17.10
2022-09-23T15:12:40.504Z,17.13
2022-09-23T15:15:45.167Z,17.13
2022-09-23T15:18:57.681Z,17.10
2022-09-23T15:22:01.808Z,17.10
2022-09-23T15:25:30.247Z,17.10
2022-09-23T15:28:34.405Z,17.10
2022-09-23T15:31:39.029Z,17.09
2022-09-23T15:34:42.805Z,17.10
2022-09-23T15:37:49.172Z,17.13
2022-09-23T15:40:53.956Z,17.20
2022-09-23T15:43:58.406Z,17.14
2022-09-23T15:47:02.734Z,17.06
2022-09-23T15:50:07.281Z,16.94
2022-09-23T15:53:17.478Z,16.82
2022-09-23T15:56:22.726Z,16.71
2022-09-23T15:59:28.616Z,16.62
2022-09-23T16:02:33.278Z,16.55
2022-09-23T16:05:39.483Z,16.54
2022-09-23T16:08:43.365Z,16.50
2022-09-23T16:11:49.244Z,16.45
2022-09-23T16:14:53.150Z,16.46
2022-09-23T16:18:03.924Z,16.58
2022-09-23T16:21:12.979Z,16.59
2022-09-23T16:24:18.884Z,16.52
2022-09-23T16:27:23.091Z,16.42
2022-09-23T16:30:28.338Z,16.37
2022-09-23T16:33:32.092Z,16.26
2022-09-23T16:36:40.595Z,16.19
2022-09-23T16:39:44.260Z,16.20
2022-09-23T16:42:50.052Z,16.21
2022-09-23T16:45:54.522Z,16.09
2022-09-23T16:48:58.692Z,15.97
2022-09-23T16:52:02.788Z,15.87
2022-09-23T16:55:08.673Z,15.79
2022-09-23T16:58:12.436Z,15.71
2022-09-23T17:01:39.841Z,15.63
2022-09-23T17:04:43.872Z,15.54
2022-09-23T17:07:48.681Z,15.45
2022-09-23T17:11:00.475Z,15.37
2022-09-23T17:14:05.654Z,15.28
2022-09-23T17:17:09.913Z,15.23
2022-09-23T17:20:14.295Z,15.17
2022-09-23T17:23:19.419Z,15.09
2022-09-23T17:26:25.946Z,15.05
2022-09-23T17:29:30.591Z,15.03
2022-09-23T17:32:34.534Z,14.95
2022-09-23T17:35:41.686Z,14.88
2022-09-23T17:38:48.187Z,14.83
2022-09-23T17:41:52.917Z,14.79
2022-09-23T17:44:59.325Z,14.81
2022-09-23T17:48:03.836Z,14.82
2022-09-23T17:51:12.057Z,14.75
2022-09-23T17:54:15.910Z,14.77
2022-09-23T17:57:19.982Z,14.70
2022-09-23T18:00:24.267Z,14.69
2022-09-23T18:03:30.328Z,14.70
2022-09-23T18:06:37.005Z,14.67
2022-09-23T18:09:41.128Z,14.66
2022-09-23T18:12:44.976Z,14.74
2022-09-23T18:15:48.857Z,14.77
2022-09-23T18:19:00.358Z,14.81
2022-09-23T18:22:04.421Z,14.70
2022-09-23T18:25:28.582Z,14.82
2022-09-23T18:28:34.960Z,14.72
2022-09-23T18:31:39.594Z,14.68
2022-09-23T18:34:43.894Z,14.73
2022-09-23T18:37:47.770Z,14.75
2022-09-23T18:40:55.416Z,14.72
2022-09-23T18:44:00.011Z,14.70
2022-09-23T18:47:03.921Z,14.63
2022-09-23T18:50:35.160Z,14.64
2022-09-23T18:53:40.928Z,14.62
2022-09-23T18:56:46.447Z,14.63
2022-09-23T18:59:50.165Z,14.60
2022-09-23T19:02:53.987Z,14.51
2022-09-23T19:06:07.716Z,14.51
2022-09-23T19:09:12.447Z,14.46
2022-09-23T19:12:16.292Z,14.49
2022-09-23T19:15:20.594Z,14.52
2022-09-23T19:18:24.695Z,14.52
2022-09-23T19:21:29.955Z,14.45
2022-09-23T19:24:33.785Z,14.41
2022-09-23T19:27:39.277Z,14.39
2022-09-23T19:30:43.245Z,14.38
2022-09-23T19:33:58.740Z,14.38
2022-09-23T19:37:04.447Z,14.37
2022-09-23T19:40:09.403Z,14.35
2022-09-23T19:43:14.455Z,14.44
2022-09-23T19:46:19.432Z,14.41
2022-09-23T19:49:24.484Z,14.39
2022-09-23T19:52:28.592Z,14.35
2022-09-23T19:55:35.471Z,14.29
2022-09-23T19:58:39.320Z,14.27
2022-09-23T20:01:43.478Z,14.23
2022-09-23T20:04:47.694Z,14.16
2022-09-23T20:07:52.765Z,14.11
2022-09-23T20:10:56.801Z,14.10
2022-09-23T20:14:04.703Z,14.09
2022-09-23T20:17:08.617Z,14.07
2022-09-23T20:20:13.531Z,14.11
2022-09-23T20:23:17.557Z,14.11
2022-09-23T20:26:41.885Z,14.12
2022-09-23T20:29:46.216Z,14.14
2022-09-23T20:32:50.196Z,14.19
2022-09-23T20:35:56.774Z,14.12
2022-09-23T20:39:03.126Z,14.13
2022-09-23T20:42:09.166Z,14.04
2022-09-23T20:45:13.301Z,14.03
2022-09-23T20:48:17.417Z,13.98
2022-09-23T20:51:21.336Z,13.94
2022-09-23T20:54:24.991Z,13.88
2022-09-23T20:57:31.505Z,13.87
2022-09-23T21:00:35.632Z,13.81
2022-09-23T21:03:41.573Z,13.79
2022-09-23T21:06:45.339Z,13.80
2022-09-23T21:09:49.362Z,13.80
2022-09-23T21:12:54.283Z,13.79
2022-09-23T21:16:09.545Z,13.82
2022-09-23T21:19:13.801Z,13.81
2022-09-23T21:22:18.472Z,13.74
2022-09-23T21:25:27.841Z,13.69
2022-09-23T21:28:43.122Z,13.68
2022-09-23T21:31:49.677Z,13.67
2022-09-23T21:34:54.018Z,13.66
2022-09-23T21:38:00.236Z,13.64
2022-09-23T21:41:07.884Z,13.73
2022-09-23T21:44:11.984Z,13.63
2022-09-23T21:47:16.111Z,13.66
2022-09-23T21:50:20.484Z,13.57
2022-09-23T21:53:25.550Z,13.54
2022-09-23T21:56:32.735Z,13.50
2022-09-23T21:59:36.711Z,13.50
2022-09-23T22:02:40.356Z,13.58
2022-09-23T22:05:44.347Z,13.59
2022-09-23T22:08:50.744Z,13.47
2022-09-23T22:12:11.621Z,13.33
2022-09-23T22:15:19.788Z,13.28
2022-09-23T22:18:23.575Z,13.22
2022-09-23T22:21:30.051Z,13.16
2022-09-23T22:24:34.186Z,13.08
2022-09-23T22:27:58.142Z,13.08
2022-09-23T22:31:20.948Z,13.09
2022-09-23T22:34:48.567Z,13.05
2022-09-23T22:37:52.298Z,13.04
2022-09-23T22:40:56.278Z,12.98
2022-09-23T22:44:00.807Z,12.98
2022-09-23T22:47:04.955Z,12.96
2022-09-23T22:50:09.771Z,12.92
2022-09-23T22:53:14.010Z,12.87
2022-09-23T22:56:17.957Z,12.84
2022-09-23T22:59:23.140Z,12.82
2022-09-23T23:02:27.635Z,12.79
2022-09-23T23:05:31.846Z,12.79
2022-09-23T23:08:37.196Z,12.78
2022-09-23T23:11:42.117Z,12.76
2022-09-23T23:14:48.596Z,12.73
2022-09-23T23:17:53.731Z,12.68
2022-09-23T23:21:13.139Z,12.64
2022-09-23T23:24:20.163Z,12.61
2022-09-23T23:27:24.112Z,12.60
2022-09-23T23:30:28.256Z,12.53
2022-09-23T23:33:32.408Z,12.48
2022-09-23T23:36:36.328Z,12.49
2022-09-23T23:39:40.522Z,12.45
2022-09-23T23:42:44.610Z,12.45
2022-09-23T23:45:51.469Z,12.35
2022-09-23T23:48:56.185Z,12.33
2022-09-23T23:52:00.215Z,12.33
2022-09-23T23:55:04.738Z,12.29
2022-09-23T23:58:08.660Z,12.24
